createdAt,value
2022-09-27T00:02:04.188Z,11.40
2022-09-27T00:04:33.002Z,11.40
2022-09-27T00:07:02.223Z,11.40
2022-09-27T00:09:30.408Z,11.40
2022-09-27T00:11:58.632Z,11.30
2022-09-27T00:14:26.865Z,11.40
2022-09-27T00:16:57.150Z,11.40
2022-09-27T00:19:25.691Z,11.40
2022-09-27T00:21:54.129Z,11.50
2022-09-27T00:24:23.875Z,11.40
2022-09-27T00:26:52.150Z,11.50
2022-09-27T00:29:21.141Z,11.50
2022-09-27T00:31:49.710Z,11.50
2022-09-27T00:34:22.471Z,11.50
2022-09-27T00:36:51.311Z,11.60
2022-09-27T00:39:20.247Z,11.60
2022-09-27T00:41:48.811Z,11.50
2022-09-27T00:44:56.540Z,11.60
2022-09-27T00:47:31.325Z,11.50
2022-09-27T00:50:04.722Z,11.60
2022-09-27T00:52:40.185Z,11.50
2022-09-27T00:55:12.555Z,11.50
2022-09-27T00:57:42.048Z,11.60
2022-09-27T01:00:13.188Z,11.50
2022-09-27T01:02:45.097Z,11.60
2022-09-27T01:05:18.850Z,11.60
2022-09-27T01:07:47.030Z,11.50
2022-09-27T01:10:16.919Z,11.40
2022-09-27T01:12:58.655Z,11.50
2022-09-27T01:15:33.893Z,11.50
2022-09-27T01:18:25.363Z,11.50
2022-09-27T01:21:37.511Z,11.50
2022-09-27T01:24:26.577Z,11.40
2022-09-27T01:27:28.438Z,11.40
2022-09-27T01:30:29.763Z,11.60
2022-09-27T01:33:15.249Z,11.50
2022-09-27T01:35:54.895Z,11.50
2022-09-27T01:38:31.533Z,11.30
2022-09-27T01:41:07.459Z,11.30
2022-09-27T01:43:49.376Z,11.40
2022-09-27T01:46:28.013Z,11.50
2022-09-27T01:49:25.706Z,11.60
2022-09-27T01:51:57.088Z,11.70
2022-09-27T01:54:27.851Z,11.60
2022-09-27T01:57:20.180Z,11.50
2022-09-27T01:59:54.597Z,11.60
2022-09-27T02:02:45.502Z,11.90
2022-09-27T02:05:39.023Z,11.90
2022-09-27T02:08:34.791Z,12.00
2022-09-27T02:11:16.574Z,12.00
2022-09-27T02:13:59.327Z,12.00
2022-09-27T02:16:50.312Z,12.00
2022-09-27T02:19:33.445Z,12.00
2022-09-27T02:22:14.324Z,12.10
2022-09-27T02:24:47.784Z,12.10
2022-09-27T02:27:23.620Z,12.10
2022-09-27T02:29:58.788Z,11.90
2022-09-27T02:32:27.389Z,11.80
2022-09-27T02:34:57.678Z,11.90
2022-09-27T02:37:27.620Z,12.00
2022-09-27T02:39:56.131Z,12.10
2022-09-27T02:42:24.819Z,12.10
2022-09-27T02:44:53.391Z,12.10
2022-09-27T02:47:36.689Z,12.10
2022-09-27T02:50:33.362Z,12.10
2022-09-27T02:53:45.498Z,12.00
2022-09-27T02:56:50.983Z,11.90
2022-09-27T03:00:00.517Z,11.90
2022-09-27T03:02:59.858Z,12.00
2022-09-27T03:05:36.648Z,11.90
2022-09-27T03:08:05.692Z,11.90
2022-09-27T03:10:36.185Z,11.70
2022-09-27T03:13:04.964Z,11.80
2022-09-27T03:15:33.631Z,11.70
2022-09-27T03:18:01.865Z,11.70
2022-09-27T03:21:08.867Z,11.70
2022-09-27T03:23:38.123Z,11.70
2022-09-27T03:26:12.715Z,11.90
2022-09-27T03:28:41.896Z,11.90
2022-09-27T03:31:10.286Z,11.50
2022-09-27T03:33:50.269Z,11.80
2022-09-27T03:36:19.462Z,11.80
2022-09-27T03:38:47.697Z,11.80
2022-09-27T03:41:20.679Z,11.70
2022-09-27T03:43:49.115Z,11.50
2022-09-27T03:46:19.102Z,11.50
2022-09-27T03:48:47.381Z,11.50
2022-09-27T03:51:15.623Z,11.60
2022-09-27T03:53:43.948Z,11.60
2022-09-27T03:56:12.784Z,11.50
2022-09-27T03:58:42.426Z,11.40
2022-09-27T04:01:11.052Z,11.20
2022-09-27T04:03:41.148Z,11.10
2022-09-27T04:06:35.791Z,11.10
2022-09-27T04:09:06.038Z,11.20
2022-09-27T04:11:53.351Z,11.30
2022-09-27T04:14:23.217Z,11.20
2022-09-27T04:17:11.461Z,11.30
2022-09-27T04:20:18.765Z,11.40
2022-09-27T04:22:47.163Z,11.30
2022-09-27T04:25:15.579Z,11.30
2022-09-27T04:27:46.764Z,11.20
2022-09-27T04:30:17.317Z,11.20
2022-09-27T04:33:06.195Z,11.20
2022-09-27T04:36:01.620Z,11.20
2022-09-27T04:38:30.401Z,11.10
2022-09-27T04:41:02.138Z,11.10
2022-09-27T04:43:34.572Z,11.10
2022-09-27T04:46:06.104Z,11.00
2022-09-27T04:48:34.676Z,10.90
2022-09-27T04:51:04.252Z,10.90
2022-09-27T04:53:32.702Z,10.90
2022-09-27T04:56:06.773Z,10.70
2022-09-27T04:58:36.232Z,10.90
2022-09-27T05:01:06.639Z,10.80
2022-09-27T05:03:57.574Z,10.60
2022-09-27T05:06:26.903Z,10.70
2022-09-27T05:08:58.914Z,10.60
2022-09-27T05:11:29.253Z,10.70
2022-09-27T05:14:16.186Z,10.90
2022-09-27T05:16:58.146Z,10.90
2022-09-27T05:19:49.363Z,11.00
2022-09-27T05:22:34.259Z,11.00
2022-09-27T05:25:03.014Z,10.80
2022-09-27T05:27:31.320Z,10.80
2022-09-27T05:30:01.916Z,10.90
2022-09-27T05:32:49.277Z,11.00
2022-09-27T05:35:45.453Z,11.00
2022-09-27T05:38:14.523Z,11.00
2022-09-27T05:40:47.861Z,11.10
2022-09-27T05:43:17.185Z,11.10
2022-09-27T05:45:46.297Z,11.20
2022-09-27T05:48:18.595Z,11.20
2022-09-27T05:50:55.513Z,11.20
2022-09-27T05:53:24.006Z,11.30
2022-09-27T05:55:52.365Z,11.30
2022-09-27T05:58:28.389Z,11.40
2022-09-27T06:01:11.018Z,11.40
2022-09-27T06:04:09.332Z,11.40
2022-09-27T06:07:10.371Z,11.30
2022-09-27T06:09:38.631Z,11.30
2022-09-27T06:12:11.972Z,11.20
2022-09-27T06:14:40.499Z,11.20
2022-09-27T06:17:18.799Z,11.10
2022-09-27T06:19:49.416Z,11.20
2022-09-27T06:22:17.756Z,11.10
2022-09-27T06:24:58.328Z,11.10
2022-09-27T06:27:30.382Z,11.00
2022-09-27T06:30:01.601Z,10.90
2022-09-27T06:32:44.711Z,11.00
2022-09-27T06:35:24.973Z,10.80
2022-09-27T06:37:53.283Z,10.90
2022-09-27T06:40:22.803Z,10.90
2022-09-27T06:42:51.110Z,10.90
2022-09-27T06:45:28.016Z,10.90
2022-09-27T06:48:17.147Z,10.80
2022-09-27T06:50:51.604Z,10.80
2022-09-27T06:53:20.900Z,10.90
2022-09-27T06:55:49.307Z,10.90
2022-09-27T06:58:35.367Z,10.90
2022-09-27T07:01:30.338Z,10.90
2022-09-27T07:04:17.274Z,10.80
2022-09-27T07:07:00.622Z,10.80
2022-09-27T07:09:33.149Z,10.80
2022-09-27T07:12:02.206Z,10.80
2022-09-27T07:14:31.418Z,10.80
2022-09-27T07:16:59.733Z,10.80
2022-09-27T07:19:32.147Z,10.80
2022-09-27T07:22:02.890Z,10.80
2022-09-27T07:24:31.646Z,10.80
2022-09-27T07:27:00.686Z,10.90
2022-09-27T07:29:29.652Z,10.90
2022-09-27T07:31:58.037Z,10.90
2022-09-27T07:34:26.316Z,10.80
2022-09-27T07:36:55.651Z,10.90
2022-09-27T07:39:26.833Z,10.90
2022-09-27T07:41:55.243Z,10.90
2022-09-27T07:44:23.507Z,10.90
2022-09-27T07:47:24.784Z,10.90
2022-09-27T07:50:08.515Z,10.90
2022-09-27T07:52:45.921Z,10.90
2022-09-27T07:55:32.428Z,10.90
2022-09-27T07:58:11.436Z,11.00
2022-09-27T08:00:41.411Z,10.90
2022-09-27T08:03:15.977Z,10.90
2022-09-27T08:05:44.604Z,10.90
2022-09-27T08:08:13.027Z,11.00
2022-09-27T08:10:44.568Z,11.10
2022-09-27T08:13:14.579Z,11.10
2022-09-27T08:15:42.892Z,11.00
2022-09-27T08:18:11.471Z,11.00
2022-09-27T08:20:58.363Z,11.00
2022-09-27T08:23:30.428Z,11.00
2022-09-27T08:26:20.341Z,10.90
2022-09-27T08:28:54.825Z,11.00
2022-09-27T08:31:26.565Z,11.00
2022-09-27T08:33:58.029Z,11.00
2022-09-27T08:36:27.218Z,11.10
2022-09-27T08:38:59.090Z,11.20
2022-09-27T08:41:39.311Z,11.20
2022-09-27T08:44:19.311Z,11.20
2022-09-27T08:47:12.652Z,11.20
2022-09-27T08:49:44.716Z,11.20
2022-09-27T08:52:19.737Z,11.30
2022-09-27T08:54:49.814Z,11.40
2022-09-27T08:57:20.808Z,11.30
2022-09-27T08:59:54.888Z,11.40
2022-09-27T09:02:26.565Z,11.40
2022-09-27T09:04:58.866Z,11.50
2022-09-27T09:07:40.944Z,11.50
2022-09-27T09:10:40.511Z,11.50
2022-09-27T09:13:19.744Z,11.50
2022-09-27T09:15:57.484Z,11.50
2022-09-27T09:18:45.764Z,11.50
2022-09-27T09:21:36.844Z,11.60
2022-09-27T09:24:21.694Z,11.70
2022-09-27T09:26:59.050Z,11.70
2022-09-27T09:29:46.248Z,11.70
2022-09-27T09:32:27.674Z,11.80
2022-09-27T09:35:02.196Z,11.90
2022-09-27T09:37:37.992Z,12.00
2022-09-27T09:40:15.437Z,11.90
2022-09-27T09:42:51.256Z,12.00
2022-09-27T09:45:27.127Z,11.90
2022-09-27T09:48:01.946Z,12.00
2022-09-27T09:50:32.779Z,12.00
2022-09-27T09:53:12.067Z,12.00
2022-09-27T09:55:42.614Z,12.00
2022-09-27T09:58:22.550Z,11.90
2022-09-27T10:01:00.893Z,11.80
2022-09-27T10:03:30.196Z,11.90
2022-09-27T10:05:58.784Z,11.90
2022-09-27T10:08:27.271Z,11.90
2022-09-27T10:11:23.636Z,11.80
2022-09-27T10:13:59.955Z,11.80
2022-09-27T10:16:30.053Z,11.80
2022-09-27T10:19:03.917Z,11.70
2022-09-27T10:21:32.495Z,11.70
2022-09-27T10:24:10.457Z,11.70
2022-09-27T10:27:01.285Z,11.60
2022-09-27T10:29:38.042Z,11.70
2022-09-27T10:32:24.876Z,11.70
2022-09-27T10:35:24.173Z,11.80
2022-09-27T10:37:53.950Z,11.70
2022-09-27T10:40:30.939Z,11.70
2022-09-27T10:43:01.402Z,11.60
2022-09-27T10:45:49.026Z,11.50
2022-09-27T10:48:24.134Z,11.50
2022-09-27T10:51:00.935Z,11.40
2022-09-27T10:53:50.317Z,11.30
2022-09-27T10:56:33.929Z,11.20
2022-09-27T10:59:05.456Z,11.40
2022-09-27T11:01:45.588Z,11.40
2022-09-27T11:04:41.427Z,11.40
2022-09-27T11:07:18.439Z,11.40
2022-09-27T11:09:55.032Z,11.40
2022-09-27T11:12:25.436Z,11.40
2022-09-27T11:14:58.112Z,11.40
2022-09-27T11:17:36.714Z,11.40
2022-09-27T11:20:25.987Z,11.40
2022-09-27T11:23:19.239Z,11.50
2022-09-27T11:26:03.981Z,11.40
2022-09-27T11:28:42.952Z,11.50
2022-09-27T11:31:29.765Z,11.50
2022-09-27T11:34:31.755Z,11.50
2022-09-27T11:37:14.182Z,11.50
2022-09-27T11:39:56.524Z,11.40
2022-09-27T11:42:46.438Z,11.50
2022-09-27T11:45:45.306Z,11.50
2022-09-27T11:48:28.793Z,11.50
2022-09-27T11:51:28.434Z,11.50
2022-09-27T11:54:13.810Z,11.50
2022-09-27T11:56:51.785Z,11.60
2022-09-27T11:59:47.339Z,11.60
2022-09-27T12:02:38.473Z,11.60
2022-09-27T12:05:21.614Z,11.70
2022-09-27T12:08:14.835Z,11.60
2022-09-27T12:10:50.754Z,11.60
2022-09-27T12:13:26.711Z,11.70
2022-09-27T12:15:57.749Z,11.50
2022-09-27T12:18:33.313Z,11.60
2022-09-27T12:21:08.048Z,11.50
2022-09-27T12:23:43.023Z,11.50
2022-09-27T12:26:37.439Z,11.50
2022-09-27T12:29:14.362Z,11.50
2022-09-27T12:31:48.090Z,11.60
2022-09-27T12:34:20.313Z,11.70
2022-09-27T12:36:54.605Z,11.90
2022-09-27T12:39:26.818Z,12.00
2022-09-27T12:42:14.458Z,12.10
2022-09-27T12:44:50.578Z,12.20
2022-09-27T12:47:38.053Z,12.30
2022-09-27T12:50:19.990Z,12.30
2022-09-27T12:52:56.012Z,12.40
2022-09-27T12:55:52.699Z,12.30
2022-09-27T12:58:44.658Z,12.20
2022-09-27T13:01:26.212Z,12.20
2022-09-27T13:04:11.536Z,12.10
2022-09-27T13:06:56.839Z,12.10
2022-09-27T13:09:58.131Z,12.10
2022-09-27T13:12:29.320Z,12.00
2022-09-27T13:15:02.614Z,12.10
2022-09-27T13:17:53.281Z,12.20
2022-09-27T13:20:48.227Z,11.90
2022-09-27T13:23:54.331Z,11.70
2022-09-27T13:26:51.087Z,11.60
2022-09-27T13:29:27.223Z,11.40
2022-09-27T13:32:28.422Z,11.30
2022-09-27T13:35:14.011Z,11.30
2022-09-27T13:37:55.487Z,11.30
2022-09-27T13:40:33.282Z,11.30
2022-09-27T13:43:47.644Z,11.40
2022-09-27T13:46:49.699Z,11.50
2022-09-27T13:49:29.139Z,11.50
2022-09-27T13:52:22.558Z,11.50
2022-09-27T13:55:08.032Z,11.60
2022-09-27T13:57:49.620Z,11.70
2022-09-27T14:00:23.934Z,11.70
2022-09-27T14:03:02.762Z,11.70
2022-09-27T14:05:42.501Z,11.60
2022-09-27T14:08:21.457Z,11.70
2022-09-27T14:10:49.707Z,11.80
2022-09-27T14:13:21.611Z,11.90
2022-09-27T14:16:03.017Z,12.00
2022-09-27T14:18:31.752Z,12.10
2022-09-27T14:21:18.421Z,12.30
2022-09-27T14:23:55.077Z,12.50
2022-09-27T14:26:25.301Z,12.60
2022-09-27T14:28:53.938Z,12.60
2022-09-27T14:31:31.276Z,12.60
2022-09-27T14:34:19.627Z,12.30
2022-09-27T14:37:08.265Z,12.30
2022-09-27T14:39:56.293Z,12.10
2022-09-27T14:42:36.488Z,12.20
2022-09-27T14:45:23.652Z,12.00
2022-09-27T14:47:53.087Z,12.00
2022-09-27T14:50:25.599Z,12.10
2022-09-27T14:52:57.606Z,12.10
2022-09-27T14:55:28.287Z,12.20
2022-09-27T14:57:58.956Z,12.10
2022-09-27T15:00:32.127Z,12.20
2022-09-27T15:03:03.318Z,12.20
2022-09-27T15:05:34.171Z,12.10
2022-09-27T15:08:07.467Z,12.00
2022-09-27T15:10:36.934Z,12.00
2022-09-27T15:13:06.963Z,11.90
2022-09-27T15:15:36.537Z,11.80
2022-09-27T15:18:05.721Z,11.80
2022-09-27T15:20:35.678Z,11.60
2022-09-27T15:23:06.294Z,11.60
2022-09-27T15:25:37.604Z,11.50
2022-09-27T15:28:08.614Z,11.20
2022-09-27T15:30:38.930Z,11.20
2022-09-27T15:33:09.319Z,11.20
2022-09-27T15:35:38.178Z,11.20
2022-09-27T15:38:24.805Z,11.50
2022-09-27T15:41:05.557Z,11.70
2022-09-27T15:43:37.146Z,11.70
2022-09-27T15:46:25.338Z,11.80
2022-09-27T15:49:27.556Z,12.00
2022-09-27T15:51:56.799Z,11.90
2022-09-27T15:54:30.236Z,11.90
2022-09-27T15:57:04.352Z,12.00
2022-09-27T15:59:34.890Z,12.10
2022-09-27T16:02:08.134Z,12.00
2022-09-27T16:04:36.634Z,12.00
2022-09-27T16:07:08.971Z,11.40
2022-09-27T16:09:39.273Z,11.00
2022-09-27T16:12:07.790Z,10.90
2022-09-27T16:14:35.902Z,11.30
2022-09-27T16:17:03.988Z,11.30
2022-09-27T16:19:32.109Z,11.30
2022-09-27T16:22:03.395Z,11.50
2022-09-27T16:24:32.079Z,11.70
2022-09-27T16:27:01.593Z,11.80
2022-09-27T16:29:29.626Z,11.90
2022-09-27T16:31:57.761Z,12.00
2022-09-27T16:34:25.919Z,12.00
2022-09-27T16:36:54.049Z,12.00
2022-09-27T16:39:22.146Z,12.10
2022-09-27T16:41:52.392Z,12.00
2022-09-27T16:44:21.847Z,12.10
2022-09-27T16:46:50.161Z,12.00
2022-09-27T16:49:40.808Z,12.00
2022-09-27T16:52:10.154Z,12.00
2022-09-27T16:54:38.238Z,11.90
2022-09-27T16:57:06.360Z,11.90
2022-09-27T16:59:36.080Z,11.90
2022-09-27T17:02:05.534Z,11.80
2022-09-27T17:04:33.620Z,11.80
2022-09-27T17:07:02.014Z,11.70
2022-09-27T17:09:30.434Z,11.70
2022-09-27T17:11:58.611Z,11.60
2022-09-27T17:14:27.267Z,11.60
2022-09-27T17:16:56.659Z,11.60
2022-09-27T17:19:24.784Z,11.60
2022-09-27T17:21:52.961Z,11.60
2022-09-27T17:24:21.109Z,11.50
2022-09-27T17:26:49.438Z,11.50
2022-09-27T17:29:18.159Z,11.50
2022-09-27T17:31:46.946Z,11.50
2022-09-27T17:34:17.170Z,11.50
2022-09-27T17:36:48.389Z,11.50
2022-09-27T17:39:18.310Z,11.50
2022-09-27T17:41:46.520Z,11.50
2022-09-27T17:44:18.251Z,11.40
2022-09-27T17:47:08.371Z,11.50
2022-09-27T17:49:55.218Z,11.40
2022-09-27T17:52:23.531Z,11.50
2022-09-27T17:54:54.463Z,11.50
2022-09-27T17:57:22.686Z,11.40
2022-09-27T17:59:50.778Z,11.30
2022-09-27T18:02:20.263Z,11.30
2022-09-27T18:04:49.824Z,11.20
2022-09-27T18:07:19.738Z,11.20
2022-09-27T18:09:47.847Z,11.20
2022-09-27T18:12:16.900Z,11.20
2022-09-27T18:14:45.225Z,11.30
2022-09-27T18:17:13.433Z,11.30
2022-09-27T18:19:41.797Z,11.30
2022-09-27T18:22:11.392Z,11.10
2022-09-27T18:24:39.414Z,11.00
2022-09-27T18:27:07.580Z,11.10
2022-09-27T18:29:35.615Z,10.90
2022-09-27T18:32:03.843Z,11.10
2022-09-27T18:34:31.927Z,11.20
2022-09-27T18:37:00.113Z,11.20
2022-09-27T18:39:29.590Z,11.20
2022-09-27T18:41:57.622Z,11.20
2022-09-27T18:44:25.791Z,11.20
2022-09-27T18:46:53.932Z,11.20
2022-09-27T18:49:25.779Z,11.10
2022-09-27T18:51:55.827Z,11.00
2022-09-27T18:54:24.089Z,11.00
2022-09-27T18:56:53.742Z,11.00
2022-09-27T18:59:23.545Z,10.90
2022-09-27T19:01:52.196Z,10.90
2022-09-27T19:04:24.725Z,10.90
2022-09-27T19:06:53.475Z,10.80
2022-09-27T19:09:22.031Z,10.80
2022-09-27T19:11:50.333Z,10.80
2022-09-27T19:14:21.365Z,10.80
2022-09-27T19:16:49.991Z,10.70
2022-09-27T19:19:19.549Z,10.70
2022-09-27T19:21:48.016Z,10.70
2022-09-27T19:24:16.944Z,10.60
2022-09-27T19:26:45.654Z,10.70
2022-09-27T19:29:14.774Z,10.70
2022-09-27T19:31:44.467Z,10.70
2022-09-27T19:34:12.819Z,10.70
2022-09-27T19:36:40.984Z,10.70
2022-09-27T19:39:09.163Z,10.70
2022-09-27T19:41:37.528Z,10.70
2022-09-27T19:44:06.712Z,10.80
2022-09-27T19:46:34.907Z,10.80
2022-09-27T19:49:04.432Z,10.80
2022-09-27T19:51:33.352Z,10.80
2022-09-27T19:54:01.428Z,10.70
2022-09-27T19:56:29.491Z,10.70
2022-09-27T19:58:57.615Z,10.70
2022-09-27T20:01:26.828Z,10.60
2022-09-27T20:03:56.947Z,10.60
2022-09-27T20:06:26.779Z,10.60
2022-09-27T20:08:55.724Z,10.60
2022-09-27T20:11:26.266Z,10.70
2022-09-27T20:13:54.620Z,10.70
2022-09-27T20:16:24.267Z,10.70
2022-09-27T20:18:53.904Z,10.70
2022-09-27T20:21:23.972Z,10.70
2022-09-27T20:23:54.601Z,10.70
2022-09-27T20:26:24.418Z,10.70
2022-09-27T20:28:54.352Z,10.80
2022-09-27T20:31:24.432Z,10.80
2022-09-27T20:33:52.998Z,10.80
2022-09-27T20:36:22.390Z,10.80
2022-09-27T20:38:58.194Z,10.80
2022-09-27T20:41:31.255Z,10.80
2022-09-27T20:44:01.170Z,10.80
2022-09-27T20:46:29.343Z,10.90
2022-09-27T20:48:59.032Z,10.80
2022-09-27T20:51:28.322Z,10.80
2022-09-27T20:53:58.051Z,10.80
2022-09-27T20:56:29.276Z,10.90
2022-09-27T20:58:58.500Z,10.80
2022-09-27T21:01:27.970Z,10.80
2022-09-27T21:03:56.928Z,10.90
2022-09-27T21:06:26.996Z,10.90
2022-09-27T21:08:55.488Z,10.90
2022-09-27T21:11:25.393Z,10.90
2022-09-27T21:13:54.492Z,10.90
2022-09-27T21:16:25.526Z,10.90
2022-09-27T21:18:55.263Z,11.00
2022-09-27T21:21:24.818Z,11.00
2022-09-27T21:23:56.022Z,11.10
2022-09-27T21:26:27.255Z,11.10
2022-09-27T21:28:57.304Z,11.10
2022-09-27T21:31:27.320Z,11.00
2022-09-27T21:33:58.934Z,11.00
2022-09-27T21:36:29.454Z,10.90
2022-09-27T21:38:58.210Z,11.00
2022-09-27T21:41:28.638Z,11.00
2022-09-27T21:43:57.264Z,11.00
2022-09-27T21:46:27.222Z,11.00
2022-09-27T21:48:58.000Z,11.10
2022-09-27T21:51:27.933Z,11.00
2022-09-27T21:53:57.454Z,11.10
2022-09-27T21:56:29.454Z,11.20
2022-09-27T21:58:57.602Z,11.30
2022-09-27T22:01:27.703Z,11.20
2022-09-27T22:03:55.984Z,11.20
2022-09-27T22:06:26.067Z,11.30
2022-09-27T22:08:56.220Z,11.40
2022-09-27T22:11:27.703Z,11.40
2022-09-27T22:13:57.887Z,11.40
2022-09-27T22:16:27.640Z,11.40
2022-09-27T22:18:57.300Z,11.40
2022-09-27T22:21:28.666Z,11.30
2022-09-27T22:23:57.856Z,11.30
2022-09-27T22:26:28.057Z,11.20
2022-09-27T22:28:58.759Z,11.10
2022-09-27T22:31:27.737Z,11.10
2022-09-27T22:33:58.355Z,11.10
2022-09-27T22:36:27.838Z,11.00
2022-09-27T22:38:56.491Z,11.00
2022-09-27T22:41:25.047Z,11.00
2022-09-27T22:43:53.890Z,11.00
2022-09-27T22:46:23.667Z,11.00
2022-09-27T22:48:51.971Z,11.10
2022-09-27T22:51:20.755Z,11.00
2022-09-27T22:53:48.859Z,11.00
2022-09-27T22:56:18.940Z,11.00
2022-09-27T22:58:48.168Z,11.00
2022-09-27T23:01:18.386Z,11.00
2022-09-27T23:03:48.440Z,11.00
2022-09-27T23:06:18.207Z,11.00
2022-09-27T23:08:47.623Z,11.00
2022-09-27T23:11:18.756Z,10.90
2022-09-27T23:13:48.088Z,11.00
2022-09-27T23:16:17.694Z,11.00
2022-09-27T23:18:47.655Z,11.00
2022-09-27T23:21:17.104Z,11.00
2022-09-27T23:23:47.027Z,11.00
2022-09-27T23:26:17.338Z,11.00
2022-09-27T23:28:46.058Z,11.00
2022-09-27T23:31:16.776Z,10.90
2022-09-27T23:33:48.677Z,11.00
2022-09-27T23:36:18.362Z,10.90
2022-09-27T23:38:48.486Z,11.00
2022-09-27T23:41:18.271Z,10.90
2022-09-27T23:43:48.232Z,10.90
2022-09-27T23:46:16.854Z,11.00
2022-09-27T23:48:45.107Z,10.90
2022-09-27T23:51:14.664Z,11.00
2022-09-27T23:53:42.916Z,11.00
2022-09-27T23:56:15.224Z,11.00
2022-09-27T23:58:44.677Z,10.90
